createdAt,value
2023-05-19T00:01:31.818Z,8.80
2023-05-19T00:04:05.655Z,9.40
2023-05-19T00:06:38.594Z,10.20
2023-05-19T00:09:10.750Z,9.60
2023-05-19T00:11:42.640Z,9.80
2023-05-19T00:14:14.543Z,10.20
2023-05-19T00:16:47.657Z,9.00
2023-05-19T00:19:19.487Z,9.20
2023-05-19T00:24:20.773Z,10.20
2023-05-19T00:26:52.379Z,8.80
2023-05-19T00:31:53.638Z,9.00
2023-05-19T00:36:55.057Z,9.10
2023-05-19T00:39:26.503Z,9.00
2023-05-19T00:41:58.043Z,9.90
2023-05-19T00:44:29.827Z,10.30
2023-05-19T00:47:01.307Z,9.70
2023-05-19T00:49:32.883Z,9.60
2023-05-19T00:52:04.284Z,9.40
2023-05-19T00:54:36.077Z,9.70
2023-05-19T00:59:37.602Z,9.60
2023-05-19T01:02:09.180Z,10.10
2023-05-19T01:04:42.039Z,8.60
2023-05-19T01:07:13.968Z,8.90
2023-05-19T01:09:45.415Z,9.60
2023-05-19T01:14:47.042Z,10.20
2023-05-19T01:17:23.503Z,9.70
2023-05-19T01:20:07.019Z,9.40
2023-05-19T01:22:55.276Z,9.20
2023-05-19T01:26:03.347Z,9.80
2023-05-19T01:29:09.514Z,9.60
2023-05-19T01:31:41.194Z,9.80
2023-05-19T01:36:45.359Z,8.90
2023-05-19T01:39:17.558Z,8.80
2023-05-19T01:41:48.950Z,8.70
2023-05-19T01:44:20.401Z,8.90
2023-05-19T01:46:52.283Z,9.60
2023-05-19T01:49:23.667Z,8.80
2023-05-19T01:51:55.579Z,9.20
2023-05-19T01:54:27.024Z,9.00
2023-05-19T01:57:01.773Z,8.70
2023-05-19T01:59:42.797Z,9.40
2023-05-19T02:02:20.979Z,9.10
2023-05-19T02:04:55.852Z,9.40
2023-05-19T02:07:31.978Z,9.30
2023-05-19T02:10:12.050Z,8.40
2023-05-19T02:12:43.610Z,9.70
2023-05-19T02:15:17.341Z,9.30
2023-05-19T02:17:51.127Z,9.90
2023-05-19T02:20:24.539Z,10.60
2023-05-19T02:22:56.006Z,9.20
2023-05-19T02:25:28.352Z,9.70
2023-05-19T02:28:00.748Z,9.00
2023-05-19T02:30:34.327Z,9.80
2023-05-19T02:33:06.796Z,10.10
2023-05-19T02:35:38.576Z,10.50
2023-05-19T02:40:41.819Z,9.90
2023-05-19T02:43:13.262Z,10.00
2023-05-19T02:45:44.840Z,9.80
2023-05-19T02:48:16.313Z,8.90
2023-05-19T02:50:47.857Z,10.50
2023-05-19T02:53:19.635Z,9.20
2023-05-19T02:55:51.625Z,9.80
2023-05-19T02:58:23.244Z,10.50
2023-05-19T03:03:24.674Z,9.60
2023-05-19T03:05:56.426Z,9.80
2023-05-19T03:08:28.183Z,10.60
2023-05-19T03:13:29.909Z,8.80
2023-05-19T03:16:02.447Z,10.00
2023-05-19T03:18:34.337Z,8.70
2023-05-19T03:23:36.046Z,8.30
2023-05-19T03:26:08.632Z,9.70
2023-05-19T03:28:40.078Z,8.90
2023-05-19T03:31:11.747Z,9.00
2023-05-19T03:33:43.600Z,9.50
2023-05-19T03:38:45.741Z,8.80
2023-05-19T03:41:17.202Z,8.50
2023-05-19T03:43:48.902Z,8.10
2023-05-19T03:46:20.982Z,7.90
2023-05-19T03:49:21.793Z,7.00
2023-05-19T03:52:10.167Z,6.70
2023-05-19T03:55:00.615Z,7.30
2023-05-19T03:57:32.386Z,8.30
2023-05-19T04:00:07.347Z,8.00
2023-05-19T04:02:44.829Z,8.30
2023-05-19T04:05:17.231Z,7.10
2023-05-19T04:07:48.662Z,7.80
2023-05-19T04:10:20.151Z,7.90
2023-05-19T04:12:51.695Z,7.10
2023-05-19T04:15:23.225Z,7.50
2023-05-19T04:17:55.223Z,7.50
2023-05-19T04:20:26.692Z,7.60
2023-05-19T04:22:58.099Z,7.20
2023-05-19T04:25:29.617Z,8.00
2023-05-19T04:28:01.167Z,7.80
2023-05-19T04:30:33.789Z,7.80
2023-05-19T04:33:05.944Z,7.20
2023-05-19T04:35:38.337Z,7.90
2023-05-19T04:38:10.234Z,7.70
2023-05-19T04:40:42.773Z,8.00
2023-05-19T04:43:18.242Z,8.00
2023-05-19T04:45:50.447Z,8.70
2023-05-19T04:48:23.385Z,8.40
2023-05-19T04:50:55.116Z,7.50
2023-05-19T04:55:57.916Z,7.90
2023-05-19T04:58:29.461Z,7.70
2023-05-19T05:01:00.919Z,8.10
2023-05-19T05:06:02.697Z,8.60
2023-05-19T05:08:34.305Z,8.70
2023-05-19T05:13:37.771Z,7.80
2023-05-19T05:16:12.295Z,8.20
2023-05-19T05:18:47.216Z,7.10
2023-05-19T05:21:19.836Z,7.70
2023-05-19T05:23:52.561Z,7.00
2023-05-19T05:26:25.516Z,7.60
2023-05-19T05:28:58.779Z,7.50
2023-05-19T05:34:00.243Z,7.50
2023-05-19T05:36:35.286Z,8.90
2023-05-19T05:39:07.175Z,8.30
2023-05-19T05:41:39.042Z,7.80
2023-05-19T05:44:14.767Z,7.50
2023-05-19T05:46:48.129Z,8.10
2023-05-19T05:49:20.917Z,7.90
2023-05-19T05:52:04.954Z,8.30
2023-05-19T05:54:42.888Z,7.40
2023-05-19T05:57:15.886Z,7.60
2023-05-19T05:59:48.963Z,6.90
2023-05-19T06:02:20.534Z,8.00
2023-05-19T06:04:52.383Z,7.50
2023-05-19T06:07:24.600Z,7.40
2023-05-19T06:09:58.150Z,7.60
2023-05-19T06:12:30.392Z,7.40
2023-05-19T06:15:01.970Z,6.50
2023-05-19T06:17:54.912Z,6.60
2023-05-19T06:20:27.230Z,6.80
2023-05-19T06:22:58.991Z,7.10
2023-05-19T06:25:31.529Z,7.50
2023-05-19T06:28:03.887Z,8.70
2023-05-19T06:30:36.963Z,7.20
2023-05-19T06:33:28.857Z,7.80
2023-05-19T06:36:01.011Z,7.20
2023-05-19T06:38:32.962Z,7.80
2023-05-19T06:41:05.228Z,7.80
2023-05-19T06:46:08.070Z,7.40
2023-05-19T06:51:10.483Z,6.20
2023-05-19T06:53:43.029Z,7.30
2023-05-19T06:58:44.987Z,6.00
2023-05-19T07:01:16.877Z,5.80
2023-05-19T07:03:51.881Z,5.50
2023-05-19T07:06:23.498Z,5.30
2023-05-19T07:08:55.522Z,5.90
2023-05-19T07:11:27.685Z,5.20
2023-05-19T07:13:59.216Z,5.30
2023-05-19T07:16:32.833Z,5.40
2023-05-19T07:19:04.683Z,5.10
2023-05-19T07:21:36.827Z,5.20
2023-05-19T07:24:08.911Z,5.50
2023-05-19T07:26:40.753Z,4.80
2023-05-19T07:29:12.706Z,3.80
2023-05-19T07:31:44.193Z,3.90
2023-05-19T07:36:46.566Z,3.40
2023-05-19T07:39:18.066Z,3.40
2023-05-19T07:41:53.126Z,4.10
2023-05-19T07:44:24.546Z,3.40
2023-05-19T07:49:26.294Z,3.00
2023-05-19T07:54:27.518Z,2.20
2023-05-19T07:59:29.131Z,2.20
2023-05-19T08:02:00.880Z,2.40
2023-05-19T08:04:32.427Z,2.20
2023-05-19T08:09:33.792Z,3.80
2023-05-19T08:14:36.575Z,2.40
2023-05-19T08:17:08.179Z,2.30
2023-05-19T08:19:39.852Z,2.30
2023-05-19T08:22:11.283Z,2.40
2023-05-19T08:27:15.168Z,2.60
2023-05-19T08:29:46.741Z,2.80
2023-05-19T08:32:18.866Z,2.50
2023-05-19T08:34:50.277Z,2.30
2023-05-19T08:37:21.716Z,2.80
2023-05-19T08:42:23.326Z,2.50
2023-05-19T08:44:54.880Z,2.30
2023-05-19T08:49:58.290Z,2.30
2023-05-19T08:52:33.116Z,2.30
2023-05-19T08:55:09.789Z,2.80
2023-05-19T08:57:43.674Z,2.30
2023-05-19T09:00:17.166Z,2.20
2023-05-19T09:02:59.702Z,2.20
2023-05-19T09:05:38.279Z,1.80
2023-05-19T09:08:10.137Z,1.80
2023-05-19T09:10:41.715Z,2.30
2023-05-19T09:13:13.646Z,1.70
2023-05-19T09:15:45.242Z,2.60
2023-05-19T09:18:17.013Z,2.70
2023-05-19T09:20:49.317Z,2.30
2023-05-19T09:23:21.226Z,2.20
2023-05-19T09:25:53.521Z,2.30
2023-05-19T09:28:29.862Z,2.50
2023-05-19T09:31:07.379Z,2.60
2023-05-19T09:33:41.510Z,2.50
2023-05-19T09:36:14.990Z,2.70
2023-05-19T09:38:47.086Z,2.50
2023-05-19T09:41:18.789Z,1.90
2023-05-19T09:43:57.253Z,2.80
2023-05-19T09:46:30.497Z,2.80
2023-05-19T09:49:02.457Z,2.80
2023-05-19T09:51:34.694Z,2.80
2023-05-19T09:54:06.600Z,2.70
2023-05-19T09:56:39.667Z,2.60
2023-05-19T09:59:11.454Z,3.10
2023-05-19T10:01:46.790Z,3.10
2023-05-19T10:04:18.550Z,3.00
2023-05-19T10:06:53.816Z,3.20
2023-05-19T10:09:28.160Z,4.20
2023-05-19T10:12:00.290Z,4.30
2023-05-19T10:14:32.492Z,4.60
2023-05-19T10:17:04.183Z,3.60
2023-05-19T10:19:36.051Z,3.70
2023-05-19T10:22:08.028Z,4.20
2023-05-19T10:24:39.489Z,3.90
2023-05-19T10:29:44.698Z,3.80
2023-05-19T10:32:18.306Z,4.40
2023-05-19T10:35:18.134Z,3.50
2023-05-19T10:37:55.068Z,3.50
2023-05-19T10:40:31.102Z,4.00
2023-05-19T10:43:13.506Z,3.70
2023-05-19T10:45:50.486Z,4.10
2023-05-19T10:48:23.495Z,4.50
2023-05-19T10:50:57.555Z,5.20
2023-05-19T10:53:34.527Z,4.80
2023-05-19T10:56:08.402Z,5.10
2023-05-19T10:58:53.624Z,5.40
2023-05-19T11:01:26.441Z,5.10
2023-05-19T11:03:58.849Z,4.70
2023-05-19T11:06:32.282Z,6.10
2023-05-19T11:09:11.931Z,7.00
2023-05-19T11:11:50.682Z,6.10
2023-05-19T11:14:25.086Z,7.10
2023-05-19T11:16:57.975Z,7.60
2023-05-19T11:19:33.342Z,8.10
2023-05-19T11:22:13.189Z,8.30
2023-05-19T11:24:50.449Z,8.10
2023-05-19T11:27:23.457Z,7.70
2023-05-19T11:29:55.472Z,7.20
2023-05-19T11:32:30.022Z,7.80
2023-05-19T11:35:01.483Z,8.30
2023-05-19T11:37:35.282Z,7.50
2023-05-19T11:40:08.450Z,7.40
2023-05-19T11:42:39.914Z,7.10
2023-05-19T11:45:13.289Z,7.00
2023-05-19T11:48:01.360Z,8.20
2023-05-19T11:50:37.124Z,7.10
2023-05-19T11:53:08.665Z,7.40
2023-05-19T11:55:43.658Z,7.50
2023-05-19T11:58:15.150Z,7.80
2023-05-19T12:00:48.136Z,8.00
2023-05-19T12:03:28.952Z,7.80
2023-05-19T12:06:00.652Z,9.80
2023-05-19T12:08:32.407Z,12.50
2023-05-19T12:11:03.830Z,10.90
2023-05-19T12:16:06.949Z,9.20
2023-05-19T12:18:42.333Z,9.30
2023-05-19T12:21:13.832Z,9.80
2023-05-19T12:23:45.376Z,9.60
2023-05-19T12:26:16.984Z,10.70
2023-05-19T12:28:49.747Z,11.70
2023-05-19T12:31:21.254Z,10.80
2023-05-19T12:33:53.320Z,9.70
2023-05-19T12:36:24.709Z,9.50
2023-05-19T12:38:58.009Z,8.10
2023-05-19T12:41:30.664Z,8.50
2023-05-19T12:44:02.035Z,8.60
2023-05-19T12:46:35.159Z,7.80
2023-05-19T12:49:06.514Z,7.60
2023-05-19T12:51:38.385Z,7.40
2023-05-19T12:54:10.815Z,8.00
2023-05-19T12:56:42.495Z,8.30
2023-05-19T12:59:16.928Z,7.60
2023-05-19T13:01:59.439Z,8.00
2023-05-19T13:04:31.414Z,7.90
2023-05-19T13:07:03.163Z,7.90
2023-05-19T13:09:36.596Z,7.60
2023-05-19T13:12:09.263Z,7.70
2023-05-19T13:14:42.677Z,7.70
2023-05-19T13:17:14.214Z,8.00
2023-05-19T13:19:45.619Z,7.00
2023-05-19T13:22:17.246Z,7.70
2023-05-19T13:24:48.795Z,8.40
2023-05-19T13:27:20.339Z,8.40
2023-05-19T13:29:51.978Z,8.80
2023-05-19T13:32:23.753Z,8.00
2023-05-19T13:34:55.382Z,8.00
2023-05-19T13:37:27.733Z,8.80
2023-05-19T13:39:59.136Z,9.90
2023-05-19T13:42:30.660Z,9.70
2023-05-19T13:45:02.055Z,9.60
2023-05-19T13:47:33.676Z,9.50
2023-05-19T13:50:05.918Z,9.10
2023-05-19T13:52:37.514Z,7.30
2023-05-19T13:55:10.783Z,7.50
2023-05-19T13:57:44.097Z,7.70
2023-05-19T14:00:18.601Z,7.30
2023-05-19T14:02:50.632Z,6.90
2023-05-19T14:05:22.696Z,7.20
2023-05-19T14:07:54.971Z,7.00
2023-05-19T14:10:26.814Z,8.10
2023-05-19T14:15:38.294Z,5.90
2023-05-19T14:18:09.966Z,5.50
2023-05-19T14:20:41.784Z,6.10
2023-05-19T14:23:15.312Z,5.60
2023-05-19T14:25:46.776Z,6.10
2023-05-19T14:28:18.198Z,5.80
2023-05-19T14:30:51.385Z,5.40
2023-05-19T14:33:23.595Z,6.00
2023-05-19T14:35:56.281Z,5.80
2023-05-19T14:38:29.487Z,5.70
2023-05-19T14:41:03.474Z,5.80
2023-05-19T14:43:35.018Z,5.90
2023-05-19T14:46:06.588Z,5.30
2023-05-19T14:48:38.347Z,5.90
2023-05-19T14:51:09.812Z,5.60
2023-05-19T14:53:41.265Z,5.90
2023-05-19T14:56:13.033Z,5.60
2023-05-19T14:58:44.445Z,5.30
2023-05-19T15:01:16.452Z,6.60
2023-05-19T15:03:48.021Z,7.30
2023-05-19T15:06:19.605Z,8.10
2023-05-19T15:08:51.240Z,9.00
2023-05-19T15:11:22.719Z,7.00
2023-05-19T15:13:54.525Z,6.50
2023-05-19T15:16:26.088Z,6.70
2023-05-19T15:18:57.615Z,8.50
2023-05-19T15:21:29.266Z,8.70
2023-05-19T15:24:00.884Z,8.40
2023-05-19T15:26:32.480Z,8.10
2023-05-19T15:31:35.766Z,6.50
2023-05-19T15:34:08.896Z,5.80
2023-05-19T15:39:10.206Z,5.50
2023-05-19T15:41:41.675Z,6.00
2023-05-19T15:44:13.118Z,5.40
2023-05-19T15:49:14.626Z,5.10
2023-05-19T15:51:46.283Z,5.30
2023-05-19T15:56:47.723Z,5.50
2023-05-19T15:59:19.286Z,5.50
2023-05-19T16:01:53.124Z,5.30
2023-05-19T16:04:25.008Z,5.50
2023-05-19T16:06:56.538Z,5.70
2023-05-19T16:11:58.273Z,5.10
2023-05-19T16:14:36.925Z,6.60
2023-05-19T16:17:11.921Z,5.80
2023-05-19T16:19:43.475Z,5.40
2023-05-19T16:22:15.175Z,5.80
2023-05-19T16:24:47.295Z,5.40
2023-05-19T16:27:18.989Z,6.60
2023-05-19T16:29:50.933Z,5.80
2023-05-19T16:32:39.546Z,5.70
2023-05-19T16:35:17.892Z,6.00
2023-05-19T16:38:14.496Z,6.00
2023-05-19T16:41:00.175Z,6.10
2023-05-19T16:44:24.905Z,5.40
2023-05-19T16:47:15.100Z,5.60
2023-05-19T16:50:02.137Z,6.20
2023-05-19T16:52:37.830Z,6.00
2023-05-19T16:55:11.236Z,5.70
2023-05-19T16:57:43.265Z,6.60
2023-05-19T17:00:17.566Z,6.40
2023-05-19T17:02:49.473Z,6.30
2023-05-19T17:05:21.534Z,6.90
2023-05-19T17:07:53.656Z,6.90
2023-05-19T17:10:26.270Z,6.00
2023-05-19T17:12:57.862Z,6.80
2023-05-19T17:15:29.620Z,7.50
2023-05-19T17:20:32.159Z,6.20
2023-05-19T17:23:03.968Z,6.20
2023-05-19T17:25:37.051Z,6.90
2023-05-19T17:28:08.588Z,7.80
2023-05-19T17:30:42.656Z,7.60
2023-05-19T17:33:14.187Z,7.60
2023-05-19T17:38:15.672Z,6.00
2023-05-19T17:43:17.077Z,6.20
2023-05-19T17:48:18.632Z,6.00
2023-05-19T17:50:51.310Z,5.80
2023-05-19T17:53:23.874Z,6.60
2023-05-19T17:56:00.599Z,6.40
2023-05-19T17:58:32.778Z,7.20
2023-05-19T18:01:05.034Z,7.30
2023-05-19T18:03:38.401Z,7.20
2023-05-19T18:06:11.014Z,7.00
2023-05-19T18:08:47.259Z,7.10
2023-05-19T18:11:19.671Z,8.00
2023-05-19T18:13:51.845Z,7.20
2023-05-19T18:16:23.784Z,6.50
2023-05-19T18:18:55.570Z,7.10
2023-05-19T18:21:27.457Z,6.60
2023-05-19T18:24:00.925Z,7.10
2023-05-19T18:26:33.392Z,6.50
2023-05-19T18:29:05.288Z,7.80
2023-05-19T18:31:37.038Z,7.90
2023-05-19T18:36:38.568Z,7.40
2023-05-19T18:39:10.521Z,8.10
2023-05-19T18:41:43.001Z,8.70
2023-05-19T18:44:14.724Z,8.30
2023-05-19T18:46:46.957Z,9.30
2023-05-19T18:49:18.671Z,24.30
2023-05-19T18:54:22.074Z,46.10
2023-05-19T18:56:54.182Z,33.30
2023-05-19T18:59:26.114Z,25.40
2023-05-19T19:01:57.512Z,18.30
2023-05-19T19:04:29.389Z,15.40
2023-05-19T19:07:01.674Z,12.60
2023-05-19T19:09:33.261Z,10.80
2023-05-19T19:12:04.719Z,9.10
2023-05-19T19:14:36.348Z,10.20
2023-05-19T19:19:37.824Z,8.70
2023-05-19T19:22:09.409Z,9.70
2023-05-19T19:24:43.243Z,9.10
2023-05-19T19:27:16.560Z,8.90
2023-05-19T19:29:48.080Z,8.30
2023-05-19T19:32:19.495Z,9.20
2023-05-19T19:34:52.315Z,7.60
2023-05-19T19:37:24.117Z,7.50
2023-05-19T19:39:55.699Z,8.30
2023-05-19T19:42:27.150Z,7.20
2023-05-19T19:44:59.526Z,6.20
2023-05-19T19:47:31.052Z,7.40
2023-05-19T19:50:05.805Z,7.30
2023-05-19T19:52:37.456Z,7.00
2023-05-19T19:55:11.656Z,7.00
2023-05-19T19:57:45.274Z,7.20
2023-05-19T20:00:18.895Z,8.80
2023-05-19T20:03:02.801Z,7.30
2023-05-19T20:05:36.154Z,8.10
2023-05-19T20:08:08.069Z,7.00
2023-05-19T20:10:39.429Z,6.70
2023-05-19T20:13:10.847Z,8.00
2023-05-19T20:15:42.203Z,7.10
2023-05-19T20:18:13.653Z,7.50
2023-05-19T20:20:45.029Z,6.80
2023-05-19T20:23:16.447Z,7.40
2023-05-19T20:26:03.023Z,7.90
2023-05-19T20:28:39.265Z,7.40
2023-05-19T20:31:10.719Z,7.40
2023-05-19T20:33:42.158Z,7.50
2023-05-19T20:36:13.699Z,7.80
2023-05-19T20:38:45.342Z,7.30
2023-05-19T20:43:46.531Z,7.00
2023-05-19T20:46:18.246Z,7.10
2023-05-19T20:48:50.053Z,6.70
2023-05-19T20:51:22.269Z,6.80
2023-05-19T20:53:53.828Z,6.90
2023-05-19T20:56:25.225Z,7.40
2023-05-19T20:58:56.700Z,6.70
2023-05-19T21:01:30.112Z,7.30
2023-05-19T21:04:06.241Z,7.70
2023-05-19T21:06:37.734Z,6.40
2023-05-19T21:09:10.927Z,7.40
2023-05-19T21:11:42.533Z,7.10
2023-05-19T21:14:13.936Z,7.60
2023-05-19T21:16:45.400Z,7.20
2023-05-19T21:19:16.942Z,7.50
2023-05-19T21:21:48.846Z,7.70
2023-05-19T21:26:51.686Z,7.40
2023-05-19T21:29:23.433Z,8.40
2023-05-19T21:34:27.743Z,7.50
2023-05-19T21:36:59.117Z,8.20
2023-05-19T21:39:30.495Z,8.80
2023-05-19T21:42:01.932Z,7.00
2023-05-19T21:44:33.363Z,7.90
2023-05-19T21:47:04.824Z,9.10
2023-05-19T21:49:36.450Z,9.30
2023-05-19T21:52:09.198Z,11.20
2023-05-19T21:54:40.829Z,11.60
2023-05-19T22:02:14.127Z,9.90
2023-05-19T22:07:16.788Z,7.10
2023-05-19T22:12:20.291Z,8.00
2023-05-19T22:14:51.911Z,7.70
2023-05-19T22:17:23.254Z,7.40
2023-05-19T22:19:54.694Z,7.80
2023-05-19T22:22:26.150Z,7.40
2023-05-19T22:24:57.668Z,7.50
2023-05-19T22:27:29.104Z,6.80
2023-05-19T22:30:00.953Z,7.20
2023-05-19T22:32:32.472Z,7.70
2023-05-19T22:35:06.857Z,7.60
2023-05-19T22:37:38.302Z,7.80
2023-05-19T22:40:12.219Z,8.80
2023-05-19T22:42:43.589Z,7.50
2023-05-19T22:45:15.236Z,7.70
2023-05-19T22:47:48.300Z,8.40
2023-05-19T22:50:20.441Z,7.40
2023-05-19T22:52:52.014Z,8.20
2023-05-19T22:55:23.801Z,8.60
2023-05-19T23:00:25.849Z,8.30
2023-05-19T23:02:58.642Z,8.10
2023-05-19T23:05:30.215Z,7.30
2023-05-19T23:08:01.711Z,7.70
2023-05-19T23:10:33.185Z,8.20
2023-05-19T23:13:05.058Z,7.50
2023-05-19T23:15:36.570Z,6.90
2023-05-19T23:18:08.858Z,8.10
2023-05-19T23:20:40.317Z,7.80
2023-05-19T23:23:11.679Z,8.20
2023-05-19T23:25:43.045Z,7.70
2023-05-19T23:28:14.450Z,8.50
2023-05-19T23:30:45.890Z,8.60
2023-05-19T23:33:17.331Z,8.30
2023-05-19T23:35:50.338Z,8.40
2023-05-19T23:38:21.808Z,8.30
2023-05-19T23:40:53.389Z,8.30
2023-05-19T23:43:24.777Z,8.10
2023-05-19T23:45:56.249Z,7.40
2023-05-19T23:48:28.180Z,7.40
2023-05-19T23:50:59.869Z,7.70
2023-05-19T23:56:01.148Z,8.40
2023-05-19T23:58:32.454Z,7.80
